Tortuga — MBKB3 — position and weather

sailwx.info

Track history (hours):
 
Tides and Currents Weather Stations Pressure Air Temp Water Temp Dewpoint Dewpoint Depression Visibility Wind Speed Wind Dir Waves Ship Positions

Tortuga

Last reported at 2017-Sep-01 08:45 UTC. Time now 2017-Nov-20 15:44 UTC.
Position N 47°30' W 002°23'.
Warning: this ship's position is months out of date.

Length 13 m.

Type: Pleasure craft. MMSI: 232009536.

Date/timePositionNaut miles runAvg speedWind from/ knotsBaromVisibWave heightAir tempDewpointWater temp
2017-Sep-01 08:45N 47°30' W 002°23'0 0.2
2017-Sep-01 08:16N 47°30' W 002°23'1 0.1
2017-Aug-31 14:43N 47°30' W 002°24'1 4.9
2017-Aug-31 14:28N 47°30' W 002°26'2 5.3
2017-Aug-31 14:00N 47°30' W 002°30'3 5.3
2017-Aug-31 13:30N 47°29' W 002°33'2 4.9
2017-Aug-31 13:00N 47°26' W 002°32'2 4.6
2017-Aug-31 12:30N 47°24' W 002°33'1 0.0
2017-Aug-29 17:38N 47°23' W 002°33'0 0.0
2017-Aug-29 17:29N 47°23' W 002°33'2 4.7
2017-Aug-29 17:00N 47°24' W 002°35'3 4.9
2017-Aug-29 16:29N 47°25' W 002°39'3 6.1
2017-Aug-29 15:59N 47°26' W 002°43'3 6.1
2017-Aug-29 15:30N 47°27' W 002°47'3 6.8
2017-Aug-29 15:00N 47°29' W 002°51'3 6.2
2017-Aug-29 14:30N 47°31' W 002°54'3 6.6
2017-Aug-29 14:00N 47°34' W 002°56'3 6.5
2017-Aug-29 13:30N 47°38' W 002°57'1 0.0
2017-Aug-28 14:56N 47°38' W 002°58'0 0.4
2017-Aug-28 14:30N 47°38' W 002°58'2 3.1
2017-Aug-28 14:00N 47°37' W 002°57'3 5.0
2017-Aug-28 13:30N 47°35' W 002°56'2 4.3
2017-Aug-28 13:00N 47°34' W 002°53'3 5.6
2017-Aug-28 12:30N 47°34' W 002°49'1 0.1
2017-Aug-27 12:01N 47°35' W 002°47'0 0.0
2017-Aug-27 11:58N 47°35' W 002°47'1 1.9
2017-Aug-27 11:29N 47°35' W 002°46'2 3.3
2017-Aug-27 11:00N 47°37' W 002°47'2 4.5
2017-Aug-27 10:30N 47°38' W 002°46'1 1.3
2017-Aug-27 10:00N 47°39' W 002°45'0 0.0
2017-Aug-26 08:41N 47°39' W 002°45'0 1.4
2017-Aug-26 08:30N 47°39' W 002°45'2 3.3
2017-Aug-26 07:56N 47°37' W 002°47'2 3.6
2017-Aug-26 07:30N 47°37' W 002°49'2 3.6
2017-Aug-26 07:00N 47°36' W 002°51'0 0.0
2017-Aug-25 16:29N 47°36' W 002°51'0 0.0
2017-Aug-25 15:59N 47°36' W 002°51'0 0.3
2017-Aug-25 15:30N 47°36' W 002°51'2 3.3
2017-Aug-25 15:00N 47°35' W 002°53'4 7.5
2017-Aug-25 14:30N 47°32' W 002°56'6 6.0
2017-Aug-25 13:30N 47°27' W 003°03'3 6.7
2017-Aug-25 13:00N 47°25' W 003°07'2 4.9
2017-Aug-25 12:30N 47°24' W 003°10'2 3.1
2017-Aug-25 12:00N 47°23' W 003°11'1 2.4
2017-Aug-25 11:31N 47°22' W 003°13'0 0.0
2017-Aug-24 15:40N 47°22' W 003°13'0 0.0
2017-Aug-24 15:28N 47°22' W 003°13'0 0.1
2017-Aug-24 14:29N 47°23' W 003°13'1 1.1
2017-Aug-24 14:00N 47°23' W 003°13'3 5.5
2017-Aug-24 13:30N 47°25' W 003°16'3 6.4
2017-Aug-24 13:00N 47°27' W 003°20'3 6.3
2017-Aug-24 12:30N 47°28' W 003°24'3 6.1
2017-Aug-24 12:00N 47°30' W 003°28'3 5.9
2017-Aug-24 11:30N 47°31' W 003°32'3 6.1
2017-Aug-24 11:00N 47°33' W 003°36'2 3.7
2017-Aug-24 10:30N 47°34' W 003°38'3 5.3
2017-Aug-24 09:59N 47°35' W 003°42'15 0.7
2017-Aug-23 11:38N 47°44' W 003°60'3 4.5
2017-Aug-23 10:58N 47°47' W 004°01'5 4.0
2017-Aug-23 09:38N 47°51' W 004°06'  
Track history (hours):
 
Tides and Currents Weather Stations Pressure Air Temp Water Temp Dewpoint Dewpoint Depression Visibility Wind Speed Wind Dir Waves Ship Positions

Tortuga

Last reported at 2017-Sep-01 08:45 UTC. Time now 2017-Nov-20 15:44 UTC.
Position N 47°30' W 002°23'.
Warning: this ship's position is months out of date.

Length 13 m.

Type: Pleasure craft. MMSI: 232009536.

Date/timePositionNaut miles runAvg speedWind from/ knotsBaromVisibWave heightAir tempDewpointWater temp
2017-Sep-01 08:45N 47°30' W 002°23'0 0.2
2017-Sep-01 08:16N 47°30' W 002°23'1 0.1
2017-Aug-31 14:43N 47°30' W 002°24'1 4.9
2017-Aug-31 14:28N 47°30' W 002°26'2 5.3
2017-Aug-31 14:00N 47°30' W 002°30'3 5.3
2017-Aug-31 13:30N 47°29' W 002°33'2 4.9
2017-Aug-31 13:00N 47°26' W 002°32'2 4.6
2017-Aug-31 12:30N 47°24' W 002°33'1 0.0
2017-Aug-29 17:38N 47°23' W 002°33'0 0.0
2017-Aug-29 17:29N 47°23' W 002°33'2 4.7
2017-Aug-29 17:00N 47°24' W 002°35'3 4.9
2017-Aug-29 16:29N 47°25' W 002°39'3 6.1
2017-Aug-29 15:59N 47°26' W 002°43'3 6.1
2017-Aug-29 15:30N 47°27' W 002°47'3 6.8
2017-Aug-29 15:00N 47°29' W 002°51'3 6.2
2017-Aug-29 14:30N 47°31' W 002°54'3 6.6
2017-Aug-29 14:00N 47°34' W 002°56'3 6.5
2017-Aug-29 13:30N 47°38' W 002°57'1 0.0
2017-Aug-28 14:56N 47°38' W 002°58'0 0.4
2017-Aug-28 14:30N 47°38' W 002°58'2 3.1
2017-Aug-28 14:00N 47°37' W 002°57'3 5.0
2017-Aug-28 13:30N 47°35' W 002°56'2 4.3
2017-Aug-28 13:00N 47°34' W 002°53'3 5.6
2017-Aug-28 12:30N 47°34' W 002°49'1 0.1
2017-Aug-27 12:01N 47°35' W 002°47'0 0.0
2017-Aug-27 11:58N 47°35' W 002°47'1 1.9
2017-Aug-27 11:29N 47°35' W 002°46'2 3.3
2017-Aug-27 11:00N 47°37' W 002°47'2 4.5
2017-Aug-27 10:30N 47°38' W 002°46'1 1.3
2017-Aug-27 10:00N 47°39' W 002°45'0 0.0
2017-Aug-26 08:41N 47°39' W 002°45'0 1.4
2017-Aug-26 08:30N 47°39' W 002°45'2 3.3
2017-Aug-26 07:56N 47°37' W 002°47'2 3.6
2017-Aug-26 07:30N 47°37' W 002°49'2 3.6
2017-Aug-26 07:00N 47°36' W 002°51'0 0.0
2017-Aug-25 16:29N 47°36' W 002°51'0 0.0
2017-Aug-25 15:59N 47°36' W 002°51'0 0.3
2017-Aug-25 15:30N 47°36' W 002°51'2 3.3
2017-Aug-25 15:00N 47°35' W 002°53'4 7.5
2017-Aug-25 14:30N 47°32' W 002°56'6 6.0
2017-Aug-25 13:30N 47°27' W 003°03'3 6.7
2017-Aug-25 13:00N 47°25' W 003°07'2 4.9
2017-Aug-25 12:30N 47°24' W 003°10'2 3.1
2017-Aug-25 12:00N 47°23' W 003°11'1 2.4
2017-Aug-25 11:31N 47°22' W 003°13'0 0.0
2017-Aug-24 15:40N 47°22' W 003°13'0 0.0
2017-Aug-24 15:28N 47°22' W 003°13'0 0.1
2017-Aug-24 14:29N 47°23' W 003°13'1 1.1
2017-Aug-24 14:00N 47°23' W 003°13'3 5.5
2017-Aug-24 13:30N 47°25' W 003°16'3 6.4
2017-Aug-24 13:00N 47°27' W 003°20'3 6.3
2017-Aug-24 12:30N 47°28' W 003°24'3 6.1
2017-Aug-24 12:00N 47°30' W 003°28'3 5.9
2017-Aug-24 11:30N 47°31' W 003°32'3 6.1
2017-Aug-24 11:00N 47°33' W 003°36'2 3.7
2017-Aug-24 10:30N 47°34' W 003°38'3 5.3
2017-Aug-24 09:59N 47°35' W 003°42'15 0.7
2017-Aug-23 11:38N 47°44' W 003°60'3 4.5
2017-Aug-23 10:58N 47°47' W 004°01'5 4.0
2017-Aug-23 09:38N 47°51' W 004°06'  

Dump ship's entire track history